Decoded Metar for KEEO (MEEKER in CO, USA) (IATA:EEO) | Meteo·Mobile Aviation Weather
aviador You're here:

KEEO Decoded Metar

MEEKER in CO, USA
Report Time2018-12-14 11:53:00
UTC Time2018-12-14 12:44:39
Flight Rules vfr VFR
Wind120° at 04 kt
W.Decomp.*RWY 03: 1.0 kt HW 3.9 kt RCW
W.Rank120° ranks 25
Current wind is below 120° avg. (5.0)
Visibility9999 m
Phenomena:N/A
Clouds:N/A
Expected CloudBase > 1,200 ft AGL from Temp-Dew spread
CeilingNone
Temp-14°C (ISA -16)
Dew Point-17°C (78% RH)
AAT-18.9°C
QNH1031 hPa
Density Alt3,724 ft
Elevation6,332 ft
Report Wrong Elevation
Raw Report
KEEO 141153Z AUTO 12004KT 10SM CLR M14/M17 A3044 RMK AO2 SLP376
T11391172 11106 21156 57002=

Extra information for KEEO:More info

Metar Taf Metar & Taf Last 4 Metars F.Rules Stats Wind Profile Meteogram Temp Stats Airport Information Weather charts Add Link Nearby VenuesMetar ALERT Operation Metar Decoded Social comments

AIRNAV info for KEEO